createdAt,value
2018-02-08T00:00:04.643Z,0
2018-02-08T00:01:04.604Z,0
2018-02-08T00:02:04.325Z,0
2018-02-08T00:03:04.539Z,0
2018-02-08T00:04:04.303Z,0
2018-02-08T00:05:04.469Z,0
2018-02-08T00:06:04.430Z,0
2018-02-08T00:07:04.144Z,0
2018-02-08T00:08:04.118Z,0
2018-02-08T00:09:04.322Z,0
2018-02-08T00:10:04.041Z,0
2018-02-08T00:11:06.267Z,0
2018-02-08T00:12:04.213Z,0
2018-02-08T00:13:03.942Z,0
2018-02-08T00:14:04.144Z,0
2018-02-08T00:15:04.109Z,0
2018-02-08T00:16:04.078Z,0
2018-02-08T00:17:04.038Z,0
2018-02-08T00:18:04.014Z,0
2018-02-08T00:19:03.964Z,0
2018-02-08T00:20:03.702Z,0
2018-02-08T00:21:03.896Z,0
2018-02-08T00:22:03.868Z,0
2018-02-08T00:23:03.828Z,0
2018-02-08T00:24:03.547Z,0
2018-02-08T00:25:03.757Z,0
2018-02-08T00:26:02.982Z,0
2018-02-08T00:27:03.441Z,0
2018-02-08T00:28:03.400Z,0
2018-02-08T00:29:03.625Z,0
2018-02-08T00:30:03.637Z,0
2018-02-08T00:31:03.544Z,0
2018-02-08T00:32:03.506Z,0
2018-02-08T00:33:03.225Z,0
2018-02-08T00:34:03.191Z,0
2018-02-08T00:35:02.907Z,0
2018-02-08T00:36:03.370Z,0
2018-02-08T00:37:03.081Z,0
2018-02-08T00:38:03.044Z,0
2018-02-08T00:39:03.254Z,0
2018-02-08T00:40:02.968Z,0
2018-02-08T00:41:03.185Z,0
2018-02-08T00:42:03.149Z,0
2018-02-08T00:43:03.124Z,0
2018-02-08T00:44:02.345Z,0
2018-02-08T00:45:03.043Z,0
2018-02-08T00:46:03.005Z,0
2018-02-08T00:47:02.967Z,0
2018-02-08T00:48:02.939Z,0
2018-02-08T00:49:02.653Z,0
2018-02-08T00:50:02.877Z,0
2018-02-08T00:51:02.342Z,0
2018-02-08T00:52:02.306Z,0
2018-02-08T00:53:02.760Z,0
2018-02-08T00:54:02.229Z,0
2018-02-08T00:55:02.733Z,0
2018-02-08T00:56:02.411Z,0
2018-02-08T00:57:02.615Z,0
2018-02-08T00:58:02.348Z,0
2018-02-08T00:59:02.301Z,0
2018-02-08T01:00:02.506Z,0
2018-02-08T01:01:02.479Z,0
2018-02-08T01:02:02.439Z,0
2018-02-08T01:03:02.158Z,0
2018-02-08T01:04:02.380Z,0
2018-02-08T01:05:02.086Z,0
2018-02-08T01:06:02.046Z,0
2018-02-08T01:07:01.763Z,0
2018-02-08T01:08:02.225Z,0
2018-02-08T01:09:01.937Z,0
2018-02-08T01:10:02.157Z,0
2018-02-08T01:11:02.113Z,0
2018-02-08T01:12:01.839Z,0
2018-02-08T01:13:01.797Z,0
2018-02-08T01:14:02.010Z,0
2018-02-08T01:15:01.737Z,0
2018-02-08T01:16:01.936Z,0
2018-02-08T01:17:01.656Z,0
2018-02-08T01:18:01.372Z,0
2018-02-08T01:19:01.587Z,0
2018-02-08T01:20:01.797Z,0
2018-02-08T01:21:01.759Z,0
2018-02-08T01:22:01.723Z,0
2018-02-08T01:23:01.446Z,0
2018-02-08T01:24:01.652Z,0
2018-02-08T01:25:01.125Z,0
2018-02-08T01:26:01.334Z,0
2018-02-08T01:27:01.293Z,0
2018-02-08T01:28:01.262Z,0
2018-02-08T01:29:01.470Z,0
2018-02-08T01:30:01.228Z,0
2018-02-08T01:31:01.405Z,0
2018-02-08T01:32:01.128Z,0
2018-02-08T01:33:01.085Z,0
2018-02-08T01:34:01.301Z,0
2018-02-08T01:35:01.261Z,0
2018-02-08T01:36:00.976Z,0
2018-02-08T01:37:00.940Z,0
2018-02-08T01:38:00.902Z,0
2018-02-08T01:39:01.110Z,0
2018-02-08T01:40:01.080Z,0
2018-02-08T01:41:01.146Z,0
2018-02-08T01:42:00.515Z,0
2018-02-08T01:43:00.720Z,0
2018-02-08T01:44:00.690Z,0
2018-02-08T01:45:00.652Z,0
2018-02-08T01:46:00.615Z,0
2018-02-08T01:47:00.829Z,0
2018-02-08T01:48:00.795Z,0
2018-02-08T01:49:00.755Z,0
2018-02-08T01:50:00.481Z,0
2018-02-08T01:51:00.438Z,0
2018-02-08T01:52:00.398Z,0
2018-02-08T01:53:00.367Z,0
2018-02-08T01:54:00.329Z,0
2018-02-08T01:55:00.542Z,0
2018-02-08T01:56:00.019Z,0
2018-02-08T01:57:00.467Z,0
2018-02-08T01:58:00.435Z,0
2018-02-08T01:59:00.149Z,0
2018-02-08T02:00:00.359Z,0
2018-02-08T02:01:00.081Z,0
2018-02-08T02:02:00.042Z,0
2018-02-08T02:03:00.010Z,0
2018-02-08T02:03:59.723Z,0
2018-02-08T02:05:00.189Z,0
2018-02-08T02:05:59.903Z,0
2018-02-08T02:07:00.105Z,0
2018-02-08T02:08:00.079Z,0
2018-02-08T02:08:59.793Z,0
2018-02-08T02:09:59.758Z,0
2018-02-08T02:10:59.473Z,0
2018-02-08T02:11:59.684Z,0
2018-02-08T02:12:59.892Z,0
2018-02-08T02:13:59.858Z,0
2018-02-08T02:14:59.817Z,0
2018-02-08T02:15:59.778Z,0
2018-02-08T02:16:59.803Z,0
2018-02-08T02:17:59.714Z,0
2018-02-08T02:18:59.432Z,0
2018-02-08T02:19:59.640Z,0
2018-02-08T02:20:59.607Z,0
2018-02-08T02:21:59.317Z,0
2018-02-08T02:22:59.536Z,0
2018-02-08T02:23:59.006Z,0
2018-02-08T02:24:59.455Z,0
2018-02-08T02:25:58.934Z,0
2018-02-08T02:26:59.386Z,0
2018-02-08T02:27:59.110Z,0
2018-02-08T02:28:59.077Z,0
2018-02-08T02:29:58.787Z,0
2018-02-08T02:30:59.016Z,0
2018-02-08T02:31:58.966Z,0
2018-02-08T02:32:58.680Z,0
2018-02-08T02:33:58.895Z,0
2018-02-08T02:34:59.114Z,0
2018-02-08T02:35:59.115Z,0
2018-02-08T02:36:59.036Z,0
2018-02-08T02:37:59.003Z,0
2018-02-08T02:38:58.960Z,0
2018-02-08T02:39:58.926Z,0
2018-02-08T02:40:58.910Z,0
2018-02-08T02:41:58.852Z,0
2018-02-08T02:42:58.327Z,0
2018-02-08T02:43:58.602Z,0
2018-02-08T02:44:58.747Z,0
2018-02-08T02:45:58.712Z,0
2018-02-08T02:46:58.673Z,0
2018-02-08T02:47:58.393Z,0
2018-02-08T02:48:58.359Z,0
2018-02-08T02:49:58.576Z,0
2018-02-08T02:50:58.287Z,0
2018-02-08T02:51:58.103Z,0
2018-02-08T02:52:58.211Z,0
2018-02-08T02:53:58.431Z,0
2018-02-08T02:54:58.143Z,0
2018-02-08T02:55:58.356Z,0
2018-02-08T02:56:58.307Z,0
2018-02-08T02:57:58.278Z,0
2018-02-08T02:58:57.996Z,0
2018-02-08T02:59:57.965Z,0
2018-02-08T03:00:58.170Z,0
2018-02-08T03:01:58.181Z,0
2018-02-08T03:02:58.094Z,0
2018-02-08T03:03:57.812Z,0
2018-02-08T03:04:58.029Z,0
2018-02-08T03:05:57.990Z,0
2018-02-08T03:06:57.705Z,0
2018-02-08T03:07:57.668Z,0
2018-02-08T03:08:57.887Z,0
2018-02-08T03:09:57.597Z,0
2018-02-08T03:10:57.811Z,0
2018-02-08T03:11:57.524Z,0
2018-02-08T03:12:57.485Z,0
2018-02-08T03:13:57.453Z,0
2018-02-08T03:14:57.670Z,0
2018-02-08T03:15:57.379Z,0
2018-02-08T03:16:57.349Z,0
2018-02-08T03:17:57.307Z,0
2018-02-08T03:18:57.521Z,0
2018-02-08T03:19:57.232Z,0
2018-02-08T03:20:56.957Z,0
2018-02-08T03:21:57.407Z,0
2018-02-08T03:22:57.127Z,0
2018-02-08T03:23:57.340Z,0
2018-02-08T03:24:56.814Z,0
2018-02-08T03:25:57.271Z,0
2018-02-08T03:26:56.985Z,0
2018-02-08T03:27:57.192Z,0
2018-02-08T03:28:56.920Z,0
2018-02-08T03:29:57.120Z,0
2018-02-08T03:30:57.099Z,0
2018-02-08T03:31:56.804Z,0
2018-02-08T03:32:56.772Z,0
2018-02-08T03:33:56.736Z,0
2018-02-08T03:34:56.206Z,0
2018-02-08T03:35:56.661Z,0
2018-02-08T03:36:56.875Z,0
2018-02-08T03:37:56.587Z,0
2018-02-08T03:38:56.798Z,0
2018-02-08T03:39:56.513Z,0
2018-02-08T03:40:56.727Z,0
2018-02-08T03:41:56.695Z,0
2018-02-08T03:42:56.416Z,0
2018-02-08T03:43:56.368Z,0
2018-02-08T03:44:56.334Z,0
2018-02-08T03:45:56.545Z,0
2018-02-08T03:46:56.503Z,0
2018-02-08T03:47:56.226Z,0
2018-02-08T03:48:55.698Z,0
2018-02-08T03:49:56.398Z,0
2018-02-08T03:50:56.122Z,0
2018-02-08T03:51:56.326Z,0
2018-02-08T03:52:56.287Z,0
2018-02-08T03:53:56.010Z,0
2018-02-08T03:54:55.974Z,0
2018-02-08T03:55:56.184Z,0
2018-02-08T03:56:56.150Z,0
2018-02-08T03:57:55.858Z,0
2018-02-08T03:58:55.822Z,0
2018-02-08T03:59:56.092Z,0
2018-02-08T04:00:56.000Z,0
2018-02-08T04:01:55.962Z,0
2018-02-08T04:02:55.931Z,0
2018-02-08T04:03:55.649Z,0
2018-02-08T04:04:55.864Z,0
2018-02-08T04:05:55.571Z,0
2018-02-08T04:06:55.781Z,0
2018-02-08T04:07:55.497Z,0
2018-02-08T04:08:55.460Z,0
2018-02-08T04:09:55.678Z,0
2018-02-08T04:10:55.146Z,0
2018-02-08T04:11:55.615Z,0
2018-02-08T04:12:55.077Z,0
2018-02-08T04:13:55.290Z,0
2018-02-08T04:14:55.541Z,0
2018-02-08T04:15:55.452Z,0
2018-02-08T04:16:54.939Z,0
2018-02-08T04:17:55.131Z,0
2018-02-08T04:18:55.097Z,0
2018-02-08T04:19:54.818Z,0
2018-02-08T04:20:55.028Z,0
2018-02-08T04:21:54.750Z,0
2018-02-08T04:22:55.198Z,0
2018-02-08T04:23:54.673Z,0
2018-02-08T04:24:54.885Z,0
2018-02-08T04:25:55.140Z,0
2018-02-08T04:26:55.059Z,0
2018-02-08T04:27:54.773Z,0
2018-02-08T04:28:54.733Z,0
2018-02-08T04:29:54.459Z,0
2018-02-08T04:30:54.665Z,0
2018-02-08T04:31:54.628Z,0
2018-02-08T04:32:54.587Z,0
2018-02-08T04:33:54.314Z,0
2018-02-08T04:34:54.764Z,0
2018-02-08T04:35:54.732Z,0
2018-02-08T04:36:54.444Z,0
2018-02-08T04:37:54.408Z,0
2018-02-08T04:38:54.625Z,0
2018-02-08T04:39:54.584Z,0
2018-02-08T04:40:54.297Z,0
2018-02-08T04:41:54.275Z,0
2018-02-08T04:42:53.981Z,0
2018-02-08T04:43:54.441Z,0
2018-02-08T04:44:53.662Z,0
2018-02-08T04:45:54.128Z,0
2018-02-08T04:46:54.327Z,0
2018-02-08T04:47:54.042Z,0
2018-02-08T04:48:54.252Z,0
2018-02-08T04:49:53.977Z,0
2018-02-08T04:50:54.181Z,0
2018-02-08T04:51:54.147Z,0
2018-02-08T04:52:54.111Z,0
2018-02-08T04:53:54.073Z,0
2018-02-08T04:54:54.033Z,0
2018-02-08T04:55:54.000Z,0
2018-02-08T04:56:53.968Z,0
2018-02-08T04:57:53.688Z,0
2018-02-08T04:58:53.397Z,0
2018-02-08T04:59:53.860Z,0
2018-02-08T05:00:53.574Z,0
2018-02-08T05:01:53.533Z,0
2018-02-08T05:02:53.496Z,0
2018-02-08T05:03:53.221Z,0
2018-02-08T05:04:53.424Z,0
2018-02-08T05:05:53.145Z,0
2018-02-08T05:06:53.349Z,0
2018-02-08T05:07:53.561Z,0
2018-02-08T05:08:53.036Z,0
2018-02-08T05:09:53.491Z,0
2018-02-08T05:10:53.450Z,0
2018-02-08T05:11:53.171Z,0
2018-02-08T05:12:53.139Z,0
2018-02-08T05:13:53.343Z,0
2018-02-08T05:14:53.306Z,0
2018-02-08T05:15:53.025Z,0
2018-02-08T05:16:53.256Z,0
2018-02-08T05:17:52.705Z,0
2018-02-08T05:18:53.163Z,0
2018-02-08T05:19:52.874Z,0
2018-02-08T05:20:52.596Z,0
2018-02-08T05:21:52.804Z,0
2018-02-08T05:22:53.018Z,0
2018-02-08T05:23:52.733Z,0
2018-02-08T05:24:52.940Z,0
2018-02-08T05:25:52.659Z,0
2018-02-08T05:26:52.628Z,0
2018-02-08T05:27:52.828Z,0
2018-02-08T05:28:52.799Z,0
2018-02-08T05:29:52.752Z,0
2018-02-08T05:30:52.716Z,0
2018-02-08T05:31:52.434Z,0
2018-02-08T05:32:52.644Z,0
2018-02-08T05:33:52.611Z,0
2018-02-08T05:34:52.575Z,0
2018-02-08T05:35:52.291Z,0
2018-02-08T05:36:52.253Z,0
2018-02-08T05:37:52.464Z,0
2018-02-08T05:38:52.428Z,0
2018-02-08T05:39:52.390Z,0
2018-02-08T05:40:52.383Z,0
2018-02-08T05:41:52.321Z,0
2018-02-08T05:42:52.032Z,0
2018-02-08T05:43:52.239Z,0
2018-02-08T05:44:51.713Z,0
2018-02-08T05:45:52.171Z,0
2018-02-08T05:46:52.138Z,0
2018-02-08T05:47:52.097Z,0
2018-02-08T05:48:52.060Z,0
2018-02-08T05:49:51.776Z,0
2018-02-08T05:50:52.049Z,0
2018-02-08T05:51:51.949Z,0
2018-02-08T05:52:51.668Z,0
2018-02-08T05:53:51.630Z,0
2018-02-08T05:54:51.590Z,0
2018-02-08T05:55:51.803Z,0
2018-02-08T05:56:51.768Z,0
2018-02-08T05:57:51.727Z,0
2018-02-08T05:58:51.218Z,0
2018-02-08T05:59:51.409Z,0
2018-02-08T06:00:51.624Z,0
2018-02-08T06:01:51.583Z,0
2018-02-08T06:02:51.301Z,0
2018-02-08T06:03:51.262Z,0
2018-02-08T06:04:50.735Z,0
2018-02-08T06:05:51.192Z,0
2018-02-08T06:06:51.412Z,0
2018-02-08T06:07:50.866Z,0
2018-02-08T06:08:51.327Z,0
2018-02-08T06:09:51.054Z,0
2018-02-08T06:10:51.351Z,0
2018-02-08T06:11:51.219Z,0
2018-02-08T06:12:51.412Z,0
2018-02-08T06:13:50.965Z,0
2018-02-08T06:14:50.371Z,0
2018-02-08T06:15:50.823Z,0
2018-02-08T06:16:50.797Z,0
2018-02-08T06:17:51.000Z,0
2018-02-08T06:18:50.468Z,0
2018-02-08T06:19:50.675Z,0
2018-02-08T06:20:50.398Z,0
2018-02-08T06:21:50.356Z,0
2018-02-08T06:22:50.564Z,4
2018-02-08T06:23:50.534Z,4
2018-02-08T06:24:50.248Z,0
2018-02-08T06:25:50.704Z,0
2018-02-08T06:26:50.677Z,4
2018-02-08T06:27:50.382Z,4
2018-02-08T06:28:50.348Z,4
2018-02-08T06:29:50.307Z,8
2018-02-08T06:30:50.518Z,8
2018-02-08T06:31:50.684Z,8
2018-02-08T06:32:50.201Z,12
2018-02-08T06:33:50.185Z,12
2018-02-08T06:34:50.132Z,16
2018-02-08T06:35:50.334Z,16
2018-02-08T06:36:50.300Z,20
2018-02-08T06:37:50.017Z,28
2018-02-08T06:38:50.227Z,32
2018-02-08T06:39:50.212Z,36
2018-02-08T06:40:49.659Z,40
2018-02-08T06:41:50.114Z,48
2018-02-08T06:42:49.830Z,52
2018-02-08T06:43:50.046Z,64
2018-02-08T06:44:49.515Z,72
2018-02-08T06:45:49.970Z,88
2018-02-08T06:46:49.738Z,100
2018-02-08T06:47:49.650Z,112
2018-02-08T06:48:49.367Z,128
2018-02-08T06:49:49.580Z,152
2018-02-08T06:50:49.795Z,172
2018-02-08T06:51:49.520Z,196
2018-02-08T06:52:49.221Z,224
2018-02-08T06:53:49.434Z,252
2018-02-08T06:54:49.391Z,288
2018-02-08T06:55:49.598Z,320
2018-02-08T06:56:49.564Z,364
2018-02-08T06:57:49.041Z,404
2018-02-08T06:58:49.005Z,456
2018-02-08T06:59:49.453Z,508
2018-02-08T07:00:48.931Z,564
2018-02-08T07:01:48.894Z,620
2018-02-08T07:02:49.346Z,688
2018-02-08T07:03:48.819Z,752
2018-02-08T07:04:49.032Z,828
2018-02-08T07:05:48.991Z,896
2018-02-08T07:06:48.954Z,972
2018-02-08T07:07:48.670Z,1052
2018-02-08T07:08:49.132Z,1128
2018-02-08T07:09:49.097Z,1212
2018-02-08T07:10:49.055Z,1292
2018-02-08T07:11:49.020Z,1372
2018-02-08T07:12:49.030Z,1452
2018-02-08T07:13:49.288Z,1532
2018-02-08T07:14:48.663Z,1608
2018-02-08T07:15:48.870Z,1688
2018-02-08T07:16:49.038Z,1760
2018-02-08T07:17:50.439Z,1828
2018-02-08T07:18:49.370Z,1888
2018-02-08T07:19:49.949Z,1956
2018-02-08T07:20:49.273Z,2020
2018-02-08T07:21:48.851Z,2100
2018-02-08T07:22:48.128Z,2188
2018-02-08T07:23:48.338Z,2268
2018-02-08T07:24:48.544Z,2344
2018-02-08T07:25:48.518Z,2412
2018-02-08T07:26:48.881Z,2480
2018-02-08T07:27:48.334Z,2548
2018-02-08T07:28:48.540Z,2600
2018-02-08T07:29:48.132Z,2660
2018-02-08T07:30:48.344Z,2720
2018-02-08T07:31:48.302Z,2792
2018-02-08T07:32:48.013Z,2876
2018-02-08T07:33:47.982Z,2964
2018-02-08T07:34:48.197Z,3060
2018-02-08T07:35:47.667Z,3148
2018-02-08T07:36:48.125Z,3252
2018-02-08T07:37:48.080Z,3368
2018-02-08T07:38:48.052Z,3488
2018-02-08T07:39:47.280Z,3600
2018-02-08T07:40:47.784Z,3712
2018-02-08T07:41:47.697Z,3832
2018-02-08T07:42:47.663Z,3956
2018-02-08T07:43:47.765Z,4100
2018-02-08T07:44:47.595Z,4240
2018-02-08T07:45:47.309Z,4364
2018-02-08T07:46:47.764Z,4496
2018-02-08T07:47:47.734Z,4620
2018-02-08T07:48:47.715Z,4748
2018-02-08T07:49:47.414Z,4848
2018-02-08T07:50:47.633Z,4920
2018-02-08T07:51:47.347Z,5000
2018-02-08T07:52:47.061Z,5096
2018-02-08T07:53:47.516Z,5212
2018-02-08T07:54:47.043Z,5352
2018-02-08T07:55:47.679Z,5496
2018-02-08T07:56:47.437Z,5612
2018-02-08T07:57:47.137Z,5700
2018-02-08T07:58:47.096Z,5768
2018-02-08T07:59:47.061Z,5804
2018-02-08T08:00:47.044Z,5852
2018-02-08T08:01:46.849Z,5912
2018-02-08T08:02:47.204Z,5980
2018-02-08T08:03:47.174Z,6068
2018-02-08T08:04:47.097Z,6172
2018-02-08T08:05:46.863Z,6284
2018-02-08T08:06:47.074Z,6396
2018-02-08T08:07:47.034Z,6500
2018-02-08T08:08:47.333Z,6580
2018-02-08T08:09:46.718Z,6620
2018-02-08T08:10:47.025Z,6656
2018-02-08T08:11:46.407Z,6668
2018-02-08T08:12:46.873Z,6640
2018-02-08T08:13:46.580Z,6624
2018-02-08T08:14:46.789Z,6588
2018-02-08T08:15:46.756Z,6532
2018-02-08T08:16:46.723Z,6512
2018-02-08T08:17:46.693Z,6516
2018-02-08T08:18:46.412Z,6504
2018-02-08T08:19:46.381Z,6512
2018-02-08T08:20:46.346Z,6560
2018-02-08T08:21:47.001Z,6560
2018-02-08T08:22:47.305Z,6496
2018-02-08T08:23:46.465Z,6340
2018-02-08T08:24:46.462Z,6208
2018-02-08T08:25:47.281Z,6000
2018-02-08T08:26:48.153Z,5844
2018-02-08T08:27:47.453Z,5792
2018-02-08T08:28:47.308Z,5804
2018-02-08T08:29:46.440Z,5804
2018-02-08T08:30:45.859Z,5852
2018-02-08T08:31:45.971Z,5960
2018-02-08T08:32:46.187Z,6040
2018-02-08T08:33:45.909Z,6156
2018-02-08T08:34:46.121Z,6432
2018-02-08T08:35:45.836Z,6568
2018-02-08T08:36:45.561Z,6648
2018-02-08T08:37:45.525Z,6556
2018-02-08T08:38:45.993Z,6512
2018-02-08T08:39:45.700Z,6624
2018-02-08T08:40:45.916Z,6828
2018-02-08T08:41:45.563Z,7168
2018-02-08T08:42:46.328Z,7528
2018-02-08T08:43:45.902Z,7604
2018-02-08T08:44:45.295Z,7756
2018-02-08T08:45:45.504Z,7984
2018-02-08T08:46:45.475Z,8236
2018-02-08T08:47:45.197Z,8368
2018-02-08T08:48:45.661Z,8372
2018-02-08T08:49:45.616Z,8400
2018-02-08T08:50:45.589Z,8428
2018-02-08T08:51:45.306Z,8452
2018-02-08T08:52:45.275Z,8468
2018-02-08T08:53:45.005Z,8624
2018-02-08T08:54:45.210Z,8852
2018-02-08T08:55:45.177Z,9044
2018-02-08T08:56:45.156Z,9228
2018-02-08T08:57:44.864Z,9504
2018-02-08T08:58:45.076Z,9788
2018-02-08T08:59:44.798Z,9968
2018-02-08T09:00:45.255Z,10068
2018-02-08T09:01:45.021Z,10148
2018-02-08T09:02:45.196Z,10184
2018-02-08T09:03:44.915Z,10192
2018-02-08T09:04:45.132Z,10132
2018-02-08T09:05:45.171Z,10048
2018-02-08T09:06:44.570Z,9912
2018-02-08T09:07:44.784Z,9560
2018-02-08T09:08:44.754Z,9112
2018-02-08T09:09:44.721Z,8808
2018-02-08T09:10:44.933Z,8556
2018-02-08T09:11:44.406Z,8572
2018-02-08T09:12:44.623Z,8668
2018-02-08T09:13:44.590Z,8936
2018-02-08T09:14:44.559Z,9276
2018-02-08T09:15:45.269Z,9408
2018-02-08T09:16:44.750Z,9288
2018-02-08T09:17:44.927Z,9240
2018-02-08T09:18:44.934Z,9408
2018-02-08T09:19:45.417Z,9452
2018-02-08T09:20:44.371Z,9572
2018-02-08T09:21:44.986Z,9608
2018-02-08T09:22:44.632Z,9388
2018-02-08T09:23:44.281Z,9620
2018-02-08T09:24:44.245Z,9568
2018-02-08T09:25:44.451Z,9392
2018-02-08T09:26:44.182Z,9184
2018-02-08T09:27:44.389Z,8816
2018-02-08T09:28:43.869Z,8436
2018-02-08T09:29:44.328Z,8240
2018-02-08T09:30:44.296Z,8204
2018-02-08T09:31:44.269Z,8160
2018-02-08T09:32:44.472Z,8096
2018-02-08T09:33:43.953Z,8088
2018-02-08T09:34:44.167Z,8152
2018-02-08T09:35:44.154Z,8152
2018-02-08T09:36:44.108Z,8008
2018-02-08T09:37:44.074Z,7824
2018-02-08T09:38:44.043Z,7596
2018-02-08T09:39:43.774Z,7508
2018-02-08T09:40:43.983Z,7412
2018-02-08T09:41:44.039Z,7280
2018-02-08T09:42:43.915Z,7192
2018-02-08T09:43:43.883Z,7084
2018-02-08T09:44:43.854Z,7044
2018-02-08T09:45:43.577Z,6932
2018-02-08T09:46:43.540Z,6912
2018-02-08T09:47:43.513Z,6964
2018-02-08T09:48:43.476Z,7004
2018-02-08T09:49:43.706Z,7004
2018-02-08T09:50:43.707Z,7080
2018-02-08T09:51:43.634Z,7024
2018-02-08T09:52:43.353Z,6928
2018-02-08T09:53:43.077Z,6684
2018-02-08T09:54:43.041Z,6572
2018-02-08T09:55:43.499Z,6420
2018-02-08T09:56:42.977Z,6236
2018-02-08T09:57:43.437Z,6112
2018-02-08T09:58:43.403Z,6216
2018-02-08T09:59:43.377Z,6580
2018-02-08T10:00:43.343Z,6896
2018-02-08T10:01:43.060Z,6984
2018-02-08T10:02:43.272Z,6928
2018-02-08T10:03:42.993Z,6928
2018-02-08T10:04:42.964Z,7048
2018-02-08T10:05:43.182Z,7228
2018-02-08T10:06:43.146Z,7400
2018-02-08T10:07:43.123Z,7344
2018-02-08T10:08:42.840Z,7224
2018-02-08T10:09:43.299Z,7160
2018-02-08T10:10:42.771Z,7200
2018-02-08T10:11:42.752Z,7276
2018-02-08T10:12:42.949Z,7404
2018-02-08T10:13:42.181Z,7456
2018-02-08T10:14:42.437Z,7512
2018-02-08T10:15:42.612Z,7640
2018-02-08T10:16:42.580Z,7696
2018-02-08T10:17:42.543Z,7784
2018-02-08T10:18:43.096Z,7836
2018-02-08T10:19:42.722Z,7680
2018-02-08T10:20:42.196Z,7448
2018-02-08T10:21:43.703Z,7160
2018-02-08T10:22:42.376Z,7052
2018-02-08T10:23:42.351Z,7388
2018-02-08T10:24:42.563Z,7292
2018-02-08T10:25:42.529Z,7128
2018-02-08T10:26:42.504Z,7252
2018-02-08T10:27:42.469Z,7252
2018-02-08T10:28:42.430Z,7200
2018-02-08T10:29:42.453Z,7152
2018-02-08T10:30:42.371Z,7132
2018-02-08T10:31:42.087Z,7144
2018-02-08T10:32:42.054Z,7200
2018-02-08T10:33:42.036Z,7216
2018-02-08T10:34:41.991Z,7084
2018-02-08T10:35:41.963Z,6820
2018-02-08T10:36:41.931Z,6332
2018-02-08T10:37:42.146Z,6284
2018-02-08T10:38:42.168Z,6652
2018-02-08T10:39:41.581Z,6992
2018-02-08T10:40:41.797Z,7244
2018-02-08T10:41:42.019Z,7344
2018-02-08T10:42:41.984Z,7336
2018-02-08T10:43:41.698Z,7292
2018-02-08T10:44:41.663Z,7288
2018-02-08T10:45:41.680Z,7296
2018-02-08T10:46:41.848Z,7296
2018-02-08T10:47:41.574Z,7336
2018-02-08T10:48:41.788Z,7364
2018-02-08T10:49:41.749Z,7384
2018-02-08T10:50:41.720Z,7456
2018-02-08T10:51:41.684Z,7520
2018-02-08T10:52:41.662Z,7584
2018-02-08T10:53:41.130Z,7600
2018-02-08T10:54:41.348Z,7592
2018-02-08T10:55:41.326Z,7568
2018-02-08T10:56:41.524Z,7532
2018-02-08T10:57:41.355Z,7544
2018-02-08T10:58:41.457Z,7552
2018-02-08T10:59:41.441Z,7552
2018-02-08T11:00:41.401Z,7600
2018-02-08T11:01:41.377Z,7576
2018-02-08T11:02:41.340Z,7544
2018-02-08T11:03:41.304Z,7560
2018-02-08T11:04:41.026Z,7572
2018-02-08T11:05:40.994Z,7552
2018-02-08T11:06:40.966Z,7540
2018-02-08T11:07:40.688Z,7480
2018-02-08T11:08:41.152Z,7300
2018-02-08T11:09:40.866Z,7200
2018-02-08T11:10:40.589Z,7344
2018-02-08T11:11:40.807Z,7432
2018-02-08T11:12:40.526Z,7424
2018-02-08T11:13:40.742Z,7428
2018-02-08T11:14:41.962Z,7448
2018-02-08T11:15:40.684Z,7472
2018-02-08T11:16:40.647Z,7568
2018-02-08T11:17:40.864Z,7612
2018-02-08T11:18:40.342Z,7568
2018-02-08T11:19:40.303Z,7504
2018-02-08T11:20:40.521Z,7512
2018-02-08T11:21:43.033Z,7504
2018-02-08T11:22:42.175Z,7444
2018-02-08T11:23:42.549Z,7376
2018-02-08T11:24:40.725Z,7348
2018-02-08T11:25:40.464Z,7384
2018-02-08T11:26:40.345Z,7464
2018-02-08T11:27:40.115Z,7496
2018-02-08T11:28:40.268Z,7456
2018-02-08T11:29:40.244Z,7472
2018-02-08T11:30:40.204Z,7568
2018-02-08T11:31:40.172Z,7664
2018-02-08T11:32:40.391Z,7800
2018-02-08T11:33:40.352Z,7868
2018-02-08T11:34:40.328Z,7836
2018-02-08T11:35:40.049Z,7816
2018-02-08T11:36:40.263Z,7748
2018-02-08T11:37:40.281Z,7680
2018-02-08T11:38:39.953Z,7684
2018-02-08T11:39:40.166Z,7740
2018-02-08T11:40:39.646Z,7736
2018-02-08T11:41:39.864Z,7688
2018-02-08T11:42:39.869Z,7604
2018-02-08T11:43:39.807Z,7580
2018-02-08T11:44:40.023Z,7532
2018-02-08T11:45:39.734Z,7460
2018-02-08T11:46:40.044Z,7364
2018-02-08T11:47:39.668Z,7300
2018-02-08T11:48:39.891Z,7284
2018-02-08T11:49:39.861Z,7336
2018-02-08T11:50:39.987Z,7396
2018-02-08T11:51:39.791Z,7420
2018-02-08T11:52:39.519Z,7428
2018-02-08T11:53:39.729Z,7436
2018-02-08T11:54:39.456Z,7456
2018-02-08T11:55:39.665Z,7516
2018-02-08T11:56:39.397Z,7592
2018-02-08T11:57:39.658Z,7640
2018-02-08T11:58:39.082Z,7640
2018-02-08T11:59:39.300Z,7632
2018-02-08T12:00:39.513Z,7632
2018-02-08T12:01:38.995Z,7608
2018-02-08T12:02:39.454Z,7688
2018-02-08T12:03:39.424Z,7768
2018-02-08T12:04:39.145Z,7840
2018-02-08T12:05:39.108Z,7900
2018-02-08T12:06:39.201Z,7944
2018-02-08T12:07:38.560Z,7904
2018-02-08T12:08:39.280Z,7804
2018-02-08T12:09:39.557Z,7752
2018-02-08T12:10:38.960Z,7712
2018-02-08T12:11:38.924Z,7680
2018-02-08T12:12:39.143Z,7644
2018-02-08T12:13:38.864Z,7576
2018-02-08T12:14:38.833Z,7520
2018-02-08T12:15:38.806Z,7472
2018-02-08T12:16:39.123Z,7476
2018-02-08T12:17:38.741Z,7532
2018-02-08T12:18:38.710Z,7576
2018-02-08T12:19:38.772Z,7604
2018-02-08T12:20:38.644Z,7668
2018-02-08T12:21:38.616Z,7792
2018-02-08T12:22:39.021Z,7828
2018-02-08T12:23:38.809Z,7844
2018-02-08T12:24:38.280Z,7868
2018-02-08T12:25:38.738Z,7896
2018-02-08T12:26:38.710Z,7872
2018-02-08T12:27:38.677Z,7832
2018-02-08T12:28:38.405Z,7804
2018-02-08T12:29:38.611Z,7824
2018-02-08T12:30:38.342Z,7832
2018-02-08T12:31:38.309Z,7720
2018-02-08T12:32:38.581Z,7544
2018-02-08T12:33:38.253Z,7756
2018-02-08T12:34:38.471Z,8044
2018-02-08T12:35:38.431Z,8168
2018-02-08T12:36:38.494Z,8196
2018-02-08T12:37:38.379Z,8216
2018-02-08T12:38:38.341Z,8252
2018-02-08T12:39:38.062Z,8304
2018-02-08T12:40:38.275Z,8356
2018-02-08T12:41:38.249Z,8416
2018-02-08T12:42:37.968Z,8472
2018-02-08T12:43:38.186Z,8496
2018-02-08T12:44:38.637Z,8520
2018-02-08T12:45:37.856Z,8536
2018-02-08T12:46:38.093Z,8536
2018-02-08T12:47:37.820Z,8504
2018-02-08T12:48:37.789Z,8444
2018-02-08T12:49:38.006Z,8344
2018-02-08T12:50:37.971Z,8320
2018-02-08T12:51:37.938Z,8368
2018-02-08T12:52:37.671Z,8520
2018-02-08T12:53:37.886Z,8644
2018-02-08T12:54:37.609Z,8768
2018-02-08T12:55:37.337Z,8852
2018-02-08T12:56:37.299Z,8976
2018-02-08T12:57:37.765Z,9136
2018-02-08T12:58:37.487Z,9512
2018-02-08T12:59:37.705Z,9692
2018-02-08T13:00:37.176Z,9756
2018-02-08T13:01:37.494Z,9772
2018-02-08T13:02:37.363Z,9720
2018-02-08T13:03:37.335Z,9604
2018-02-08T13:04:36.816Z,9508
2018-02-08T13:05:37.266Z,9436
2018-02-08T13:06:37.493Z,9372
2018-02-08T13:07:37.215Z,9276
2018-02-08T13:08:37.424Z,9156
2018-02-08T13:09:37.154Z,9024
2018-02-08T13:10:37.123Z,8872
2018-02-08T13:11:37.341Z,8696
2018-02-08T13:12:37.083Z,8516
2018-02-08T13:13:36.787Z,8332
2018-02-08T13:14:37.254Z,8164
2018-02-08T13:15:36.968Z,7984
2018-02-08T13:16:36.694Z,7800
2018-02-08T13:17:36.915Z,7676
2018-02-08T13:18:36.881Z,7528
2018-02-08T13:19:36.850Z,7488
2018-02-08T13:20:37.072Z,7472
2018-02-08T13:21:37.041Z,7508
2018-02-08T13:22:36.514Z,7492
2018-02-08T13:23:36.732Z,7472
2018-02-08T13:24:36.700Z,7476
2018-02-08T13:25:36.920Z,7488
2018-02-08T13:26:36.890Z,7484
2018-02-08T13:27:36.865Z,7568
2018-02-08T13:28:36.587Z,7564
2018-02-08T13:29:36.781Z,7496
2018-02-08T13:30:36.775Z,7488
2018-02-08T13:31:36.249Z,7480
2018-02-08T13:32:36.715Z,7412
2018-02-08T13:33:36.432Z,7304
2018-02-08T13:34:36.410Z,7256
2018-02-08T13:35:36.622Z,7124
2018-02-08T13:36:36.384Z,6856
2018-02-08T13:37:36.615Z,6680
2018-02-08T13:38:36.285Z,6608
2018-02-08T13:39:36.566Z,6552
2018-02-08T13:40:36.469Z,6528
2018-02-08T13:41:36.445Z,6484
2018-02-08T13:42:36.413Z,6424
2018-02-08T13:43:36.385Z,6252
2018-02-08T13:44:36.111Z,6228
2018-02-08T13:45:36.421Z,6336
2018-02-08T13:46:36.055Z,6420
2018-02-08T13:47:36.023Z,6548
2018-02-08T13:48:36.258Z,6636
2018-02-08T13:49:35.713Z,6732
2018-02-08T13:50:36.034Z,6764
2018-02-08T13:51:36.166Z,6816
2018-02-08T13:52:35.865Z,6852
2018-02-08T13:53:35.841Z,6912
2018-02-08T13:54:36.064Z,6924
2018-02-08T13:55:35.785Z,7056
2018-02-08T13:56:35.747Z,7208
2018-02-08T13:57:35.990Z,7400
2018-02-08T13:58:35.938Z,7448